createdAt,value
2018-10-11T08:49:29.258Z,79.10
2018-10-11T08:52:32.117Z,77.60
2018-10-11T08:55:35.601Z,77.70
2018-10-11T08:58:39.843Z,76.80
2018-10-11T09:01:45.163Z,77.40
2018-10-11T09:04:49.674Z,75.90
2018-10-11T09:07:54.551Z,74.50
2018-10-11T09:10:58.097Z,73.70
2018-10-11T09:14:01.890Z,71.40
2018-10-11T09:17:05.441Z,71.10
2018-10-11T09:20:09.167Z,69.70
2018-10-11T09:23:13.299Z,70.80
2018-10-11T09:26:17.921Z,67.80
2018-10-11T09:29:21.415Z,68.40
2018-10-11T09:32:25.351Z,67.80
2018-10-11T09:35:28.288Z,66.90
2018-10-11T09:38:32.699Z,65.80
2018-10-11T09:41:35.831Z,66.80
2018-10-11T09:44:40.799Z,64.70
2018-10-11T09:47:44.375Z,62.90
2018-10-11T09:50:49.002Z,65.70
2018-10-11T09:53:53.211Z,62.20
2018-10-11T09:57:33.314Z,59.50
2018-10-11T10:00:41.706Z,58.70
2018-10-11T10:03:45.748Z,57.30
2018-10-11T10:06:51.843Z,53.40
2018-10-11T10:09:57.159Z,50.90
2018-10-11T10:13:01.183Z,47.90
2018-10-11T10:16:04.759Z,47.90
2018-10-11T10:19:09.262Z,45.10
2018-10-11T10:22:12.823Z,43.60
2018-10-11T10:25:16.538Z,43.90
2018-10-11T10:28:22.109Z,39.10
2018-10-11T10:31:28.114Z,40.60
2018-10-11T10:34:31.902Z,38.60
2018-10-11T10:37:36.314Z,35.80
2018-10-11T10:40:40.601Z,37.00
2018-10-11T10:43:44.002Z,36.50
2018-10-11T10:46:47.051Z,37.20
2018-10-11T10:49:50.627Z,33.90
2018-10-11T10:52:56.171Z,35.80
2018-10-11T10:56:00.067Z,34.00
2018-10-11T10:59:04.184Z,33.50
2018-10-11T11:02:07.686Z,31.50
2018-10-11T11:05:12.790Z,31.60
2018-10-11T11:08:16.895Z,31.70
2018-10-11T11:11:19.994Z,31.90
2018-10-11T11:14:24.058Z,31.90
2018-10-11T11:17:28.198Z,32.30
2018-10-11T11:20:31.647Z,33.10
2018-10-11T11:23:35.814Z,32.50
2018-10-11T11:26:39.715Z,32.90
2018-10-11T11:29:43.230Z,32.00
2018-10-11T11:32:47.339Z,31.10
2018-10-11T11:35:50.214Z,30.10
2018-10-11T11:38:53.684Z,32.50
2018-10-11T11:41:58.358Z,31.60
2018-10-11T11:45:03.186Z,30.80
2018-10-11T11:48:07.355Z,28.90
2018-10-11T11:51:11.734Z,29.80
2018-10-11T11:54:15.631Z,30.30
2018-10-11T11:57:19.794Z,29.40
2018-10-11T12:00:26.442Z,30.30
2018-10-11T12:03:29.347Z,31.20
2018-10-11T12:06:32.386Z,29.40
2018-10-11T12:09:36.410Z,29.40
2018-10-11T12:13:00.906Z,29.50
2018-10-11T12:16:04.970Z,29.50
2018-10-11T12:19:11.150Z,29.90
2018-10-11T12:22:15.413Z,28.70
2018-10-11T12:25:19.378Z,28.70
2018-10-11T12:28:22.968Z,28.80
2018-10-11T12:31:26.543Z,28.90
2018-10-11T12:34:29.411Z,29.10
2018-10-11T12:37:33.890Z,28.70
2018-10-11T12:40:38.443Z,28.00
2018-10-11T12:43:42.334Z,27.50
2018-10-11T12:46:45.723Z,27.40
2018-10-11T12:49:49.659Z,27.70
2018-10-11T12:52:53.815Z,29.10
2018-10-11T12:55:57.489Z,28.60
2018-10-11T12:59:02.286Z,28.30
2018-10-11T13:02:07.192Z,28.00
2018-10-11T13:05:11.108Z,27.50
2018-10-11T13:08:16.714Z,26.40
2018-10-11T13:11:22.638Z,25.50
2018-10-11T13:14:26.066Z,24.50
2018-10-11T13:17:33.310Z,25.00
2018-10-11T13:20:34.434Z,25.10
2018-10-11T13:23:38.782Z,23.40
2018-10-11T13:26:42.727Z,24.20
2018-10-11T13:29:47.262Z,24.80
2018-10-11T13:32:51.482Z,25.90
2018-10-11T13:35:55.642Z,26.80
2018-10-11T13:38:59.228Z,28.30
2018-10-11T13:42:03.399Z,29.10
2018-10-11T13:45:06.254Z,31.60
2018-10-11T13:48:11.374Z,34.20
2018-10-11T13:51:14.851Z,34.60
2018-10-11T13:54:20.240Z,34.60
2018-10-11T13:57:26.844Z,33.70
2018-10-11T14:00:28.811Z,31.30
2018-10-11T14:03:31.731Z,29.70
2018-10-11T14:06:35.851Z,29.60
2018-10-11T14:09:39.998Z,27.90
2018-10-11T14:12:43.395Z,27.70
2018-10-11T14:15:47.790Z,26.20
2018-10-11T14:18:51.334Z,27.10
2018-10-11T14:21:54.266Z,27.10
2018-10-11T14:24:58.322Z,26.70
2018-10-11T14:28:02.231Z,26.50
2018-10-11T14:31:06.270Z,26.30
2018-10-11T14:34:10.310Z,27.90
2018-10-11T14:37:13.940Z,27.80
2018-10-11T14:40:17.950Z,28.50
2018-10-11T14:43:21.540Z,27.90
2018-10-11T14:46:25.775Z,27.90
2018-10-11T14:49:29.136Z,27.50
2018-10-11T14:52:32.614Z,27.70
2018-10-11T14:55:37.467Z,27.20
2018-10-11T14:58:41.487Z,28.10
2018-10-11T15:01:45.710Z,28.70
2018-10-11T15:04:51.086Z,29.30
2018-10-11T15:07:54.774Z,30.30
2018-10-11T15:10:58.169Z,30.80
2018-10-11T15:14:00.854Z,32.50
2018-10-11T15:17:05.915Z,34.70
2018-10-11T15:20:10.890Z,36.10
2018-10-11T15:23:14.962Z,38.10
2018-10-11T15:26:17.891Z,39.10
2018-10-11T15:29:22.708Z,38.50
2018-10-11T15:32:27.782Z,38.20
2018-10-11T15:35:31.383Z,38.80
2018-10-11T15:38:36.071Z,40.40
2018-10-11T15:41:40.069Z,42.30
2018-10-11T15:44:43.587Z,43.80
2018-10-11T15:47:47.719Z,44.70
2018-10-11T15:50:52.598Z,45.60
2018-10-11T15:53:57.291Z,46.50
2018-10-11T15:57:00.879Z,46.80
2018-10-11T16:00:05.770Z,47.30
2018-10-11T16:03:10.782Z,47.60
2018-10-11T16:06:15.740Z,48.30
2018-10-11T16:09:20.048Z,49.50
2018-10-11T16:12:23.958Z,50.70
2018-10-11T16:15:26.925Z,51.50
2018-10-11T16:18:31.707Z,52.00
2018-10-11T16:21:36.599Z,52.30
2018-10-11T16:24:41.260Z,53.00
2018-10-11T16:27:44.153Z,53.60
2018-10-11T16:30:47.639Z,54.00
2018-10-11T16:33:51.922Z,54.40
2018-10-11T16:36:56.295Z,54.90
2018-10-11T16:40:00.297Z,55.40
2018-10-11T16:43:04.527Z,56.70
2018-10-11T16:46:08.067Z,56.80
2018-10-11T16:49:13.679Z,57.30
2018-10-11T16:52:18.173Z,57.90
2018-10-11T16:55:22.079Z,58.70
2018-10-11T16:58:25.591Z,59.60
2018-10-11T17:01:29.074Z,60.00
2018-10-11T17:04:33.286Z,60.90
2018-10-11T17:07:36.755Z,61.80
2018-10-11T17:10:40.970Z,62.50
2018-10-11T17:13:44.411Z,63.60
2018-10-11T17:16:48.926Z,64.40
2018-10-11T17:19:52.962Z,64.90
2018-10-11T17:22:57.410Z,65.00
2018-10-11T17:26:01.960Z,65.50
2018-10-11T17:29:06.470Z,65.90
2018-10-11T17:32:12.343Z,66.20
2018-10-11T17:35:16.248Z,66.70
2018-10-11T17:38:20.372Z,66.90
2018-10-11T17:41:23.319Z,67.00
2018-10-11T17:44:26.339Z,67.10
2018-10-11T17:47:31.382Z,67.40
2018-10-11T17:50:35.075Z,67.90
2018-10-11T17:53:39.446Z,69.50
2018-10-11T17:56:42.928Z,69.30
2018-10-11T17:59:47.762Z,69.40
2018-10-11T18:02:52.015Z,69.60
2018-10-11T18:05:57.247Z,69.80
2018-10-11T18:09:01.327Z,70.20
2018-10-11T18:12:04.794Z,70.30
2018-10-11T18:15:09.102Z,70.90
2018-10-11T18:18:15.107Z,72.50
2018-10-11T18:21:19.678Z,72.40
2018-10-11T18:24:23.786Z,73.10
2018-10-11T18:27:27.431Z,73.90
2018-10-11T18:30:32.142Z,74.90
2018-10-11T18:33:36.435Z,75.40
2018-10-11T18:36:40.087Z,75.90
2018-10-11T18:39:44.502Z,76.30
2018-10-11T18:42:50.326Z,76.60
2018-10-11T18:45:54.618Z,76.80
2018-10-11T18:48:57.576Z,76.50
2018-10-11T18:52:01.739Z,77.50
2018-10-11T18:55:05.919Z,78.70
2018-10-11T18:58:10.422Z,79.20
2018-10-11T19:01:14.941Z,79.60
2018-10-11T19:04:20.339Z,79.60
2018-10-11T19:07:23.779Z,80.10
2018-10-11T19:10:29.117Z,80.10
2018-10-11T19:13:33.630Z,81.00
2018-10-11T19:16:37.890Z,81.50
2018-10-11T19:19:42.832Z,81.50
2018-10-11T19:22:46.878Z,81.50
2018-10-11T19:25:50.974Z,81.10
2018-10-11T19:28:56.495Z,79.50
2018-10-11T19:32:01.319Z,77.80
2018-10-11T19:35:05.659Z,76.40
2018-10-11T19:38:09.995Z,75.00
2018-10-11T19:41:14.455Z,74.50
2018-10-11T19:44:17.962Z,75.10
2018-10-11T19:47:22.307Z,75.30
2018-10-11T19:50:27.382Z,75.70
2018-10-11T19:53:31.502Z,76.00
2018-10-11T19:56:35.847Z,76.10
2018-10-11T19:59:40.113Z,76.40
2018-10-11T20:02:44.131Z,76.60
2018-10-11T20:05:48.260Z,77.10
2018-10-11T20:08:52.974Z,77.40
2018-10-11T20:11:57.722Z,77.60
2018-10-11T20:15:01.859Z,77.50
2018-10-11T20:18:06.831Z,77.60
2018-10-11T20:21:10.590Z,77.50
2018-10-11T20:24:15.398Z,77.80
2018-10-11T20:27:18.968Z,78.30
2018-10-11T20:30:23.490Z,78.50
2018-10-11T20:33:27.154Z,79.30
2018-10-11T20:36:30.805Z,79.60
2018-10-11T20:39:34.339Z,79.80
2018-10-11T20:42:39.762Z,79.70
2018-10-11T20:45:44.062Z,80.30
2018-10-11T20:48:47.630Z,80.90
2018-10-11T20:51:51.298Z,81.40
2018-10-11T20:54:54.977Z,81.90
2018-10-11T20:57:59.594Z,81.50
2018-10-11T21:01:06.077Z,82.50
2018-10-11T21:04:10.254Z,82.60
2018-10-11T21:07:14.447Z,82.50
2018-10-11T21:10:17.923Z,82.90
2018-10-11T21:13:22.232Z,83.60
2018-10-11T21:16:26.905Z,84.30
2018-10-11T21:19:31.116Z,84.30
2018-10-11T21:22:34.803Z,84.20
2018-10-11T21:25:37.799Z,84.50
2018-10-11T21:28:41.922Z,84.70
2018-10-11T21:31:46.350Z,85.00
2018-10-11T21:34:49.910Z,85.30
2018-10-11T21:37:52.814Z,85.00
2018-10-11T21:40:56.970Z,85.80
2018-10-11T21:44:02.482Z,87.10
2018-10-11T21:47:05.909Z,87.70
2018-10-11T21:50:10.103Z,88.10
2018-10-11T21:53:13.463Z,87.50
2018-10-11T21:56:17.942Z,87.60
2018-10-11T21:59:21.566Z,88.10
2018-10-11T22:02:25.007Z,87.70
2018-10-11T22:05:27.795Z,88.30
2018-10-11T22:08:31.445Z,89.10
2018-10-11T22:11:34.354Z,89.00
2018-10-11T22:14:38.679Z,89.40
2018-10-11T22:17:42.199Z,89.80
2018-10-11T22:20:46.066Z,90.10
2018-10-11T22:23:50.172Z,90.30
2018-10-11T22:26:54.486Z,90.00
2018-10-11T22:29:58.011Z,90.20
2018-10-11T22:33:03.651Z,90.80
2018-10-11T22:36:07.643Z,91.30
2018-10-11T22:39:12.410Z,91.50
2018-10-11T22:42:17.755Z,91.70
2018-10-11T22:45:22.051Z,91.40
2018-10-11T22:48:25.535Z,91.60
2018-10-11T22:51:29.967Z,92.30
2018-10-11T22:54:34.663Z,91.70
2018-10-11T22:57:38.950Z,91.80
2018-10-11T23:00:42.389Z,91.90
2018-10-11T23:03:47.242Z,91.70
2018-10-11T23:06:50.774Z,92.00
2018-10-11T23:09:53.887Z,92.30
2018-10-11T23:12:59.298Z,92.40
2018-10-11T23:16:02.806Z,92.40
2018-10-11T23:19:06.926Z,92.40
2018-10-11T23:22:10.762Z,92.40
2018-10-11T23:25:14.934Z,92.40
2018-10-11T23:28:19.128Z,92.40
2018-10-11T23:31:22.791Z,92.40
2018-10-11T23:34:27.114Z,92.40
2018-10-11T23:37:32.300Z,92.40
2018-10-11T23:40:35.931Z,92.30
2018-10-11T23:43:40.129Z,91.80
2018-10-11T23:46:45.110Z,91.60
2018-10-11T23:49:48.562Z,92.00
2018-10-11T23:52:52.086Z,92.00
2018-10-11T23:55:54.990Z,92.20
2018-10-11T23:59:00.851Z,92.40
